sensor_id;sensor_type;location;lat;lon;timestamp;temperature;humidity
45066;DHT22;30830;53.704;10.004;2023-07-28T00:02:03;15.70;99.90
45066;DHT22;30830;53.704;10.004;2023-07-28T00:04:29;15.70;99.90
45066;DHT22;30830;53.704;10.004;2023-07-28T00:06:55;15.60;99.90
45066;DHT22;30830;53.704;10.004;2023-07-28T00:09:20;15.60;99.90
45066;DHT22;30830;53.704;10.004;2023-07-28T00:11:46;15.60;99.90
45066;DHT22;30830;53.704;10.004;2023-07-28T00:14:11;15.60;99.90
45066;DHT22;30830;53.704;10.004;2023-07-28T00:16:37;15.70;99.90
45066;DHT22;30830;53.704;10.004;2023-07-28T00:19:03;15.70;99.90
45066;DHT22;30830;53.704;10.004;2023-07-28T00:21:29;15.70;99.90
45066;DHT22;30830;53.704;10.004;2023-07-28T00:23:54;15.70;99.90
45066;DHT22;30830;53.704;10.004;2023-07-28T00:26:20;15.70;99.90
45066;DHT22;30830;53.704;10.004;2023-07-28T00:28:45;15.70;99.90
45066;DHT22;30830;53.704;10.004;2023-07-28T00:31:11;15.70;99.90
45066;DHT22;30830;53.704;10.004;2023-07-28T00:33:37;15.70;99.90
45066;DHT22;30830;53.704;10.004;2023-07-28T00:36:03;15.70;99.90
45066;DHT22;30830;53.704;10.004;2023-07-28T00:38:28;15.70;99.90
45066;DHT22;30830;53.704;10.004;2023-07-28T00:40:54;15.70;99.90
45066;DHT22;30830;53.704;10.004;2023-07-28T00:43:20;15.70;99.90
45066;DHT22;30830;53.704;10.004;2023-07-28T00:45:45;15.70;99.90
45066;DHT22;30830;53.704;10.004;2023-07-28T00:48:13;15.70;99.90
45066;DHT22;30830;53.704;10.004;2023-07-28T00:50:42;15.70;99.90
45066;DHT22;30830;53.704;10.004;2023-07-28T00:53:09;15.70;99.90
45066;DHT22;30830;53.704;10.004;2023-07-28T00:55:34;15.70;99.90
45066;DHT22;30830;53.704;10.004;2023-07-28T00:58:00;15.60;99.90
45066;DHT22;30830;53.704;10.004;2023-07-28T01:00:26;15.70;99.90
45066;DHT22;30830;53.704;10.004;2023-07-28T01:02:51;15.60;99.90
45066;DHT22;30830;53.704;10.004;2023-07-28T01:05:17;15.60;99.90
45066;DHT22;30830;53.704;10.004;2023-07-28T01:07:59;15.60;99.90
45066;DHT22;30830;53.704;10.004;2023-07-28T01:10:30;15.60;99.90
45066;DHT22;30830;53.704;10.004;2023-07-28T01:12:59;15.60;99.90
45066;DHT22;30830;53.704;10.004;2023-07-28T01:15:24;15.60;99.90
45066;DHT22;30830;53.704;10.004;2023-07-28T01:17:50;15.60;99.90
45066;DHT22;30830;53.704;10.004;2023-07-28T01:20:17;15.60;99.90
45066;DHT22;30830;53.704;10.004;2023-07-28T01:28:00;15.60;99.90
45066;DHT22;30830;53.704;10.004;2023-07-28T01:30:27;15.60;99.90
45066;DHT22;30830;53.704;10.004;2023-07-28T01:32:56;15.60;99.90
45066;DHT22;30830;53.704;10.004;2023-07-28T01:35:22;15.60;99.90
45066;DHT22;30830;53.704;10.004;2023-07-28T01:37:47;15.60;99.90
45066;DHT22;30830;53.704;10.004;2023-07-28T01:40:17;15.60;99.90
45066;DHT22;30830;53.704;10.004;2023-07-28T01:42:45;15.60;99.90
45066;DHT22;30830;53.704;10.004;2023-07-28T01:45:11;15.60;99.90
45066;DHT22;30830;53.704;10.004;2023-07-28T01:47:37;15.60;99.90
45066;DHT22;30830;53.704;10.004;2023-07-28T01:50:02;15.60;99.90
45066;DHT22;30830;53.704;10.004;2023-07-28T01:52:28;15.60;99.90
45066;DHT22;30830;53.704;10.004;2023-07-28T01:54:56;15.60;99.90
45066;DHT22;30830;53.704;10.004;2023-07-28T01:57:21;15.60;99.90
45066;DHT22;30830;53.704;10.004;2023-07-28T01:59:47;15.60;99.90
45066;DHT22;30830;53.704;10.004;2023-07-28T02:02:12;15.60;99.90
45066;DHT22;30830;53.704;10.004;2023-07-28T02:04:38;15.60;99.90
45066;DHT22;30830;53.704;10.004;2023-07-28T02:07:04;15.60;99.90
45066;DHT22;30830;53.704;10.004;2023-07-28T02:09:30;15.60;99.90
45066;DHT22;30830;53.704;10.004;2023-07-28T02:11:55;15.60;99.90
45066;DHT22;30830;53.704;10.004;2023-07-28T02:14:21;15.60;99.90
45066;DHT22;30830;53.704;10.004;2023-07-28T02:16:46;15.60;99.90
45066;DHT22;30830;53.704;10.004;2023-07-28T02:19:12;15.50;99.90
45066;DHT22;30830;53.704;10.004;2023-07-28T02:21:38;15.50;99.90
45066;DHT22;30830;53.704;10.004;2023-07-28T02:24:03;15.60;99.90
45066;DHT22;30830;53.704;10.004;2023-07-28T02:26:29;15.60;99.90
45066;DHT22;30830;53.704;10.004;2023-07-28T02:28:54;15.60;99.90
45066;DHT22;30830;53.704;10.004;2023-07-28T02:31:20;15.60;99.90
45066;DHT22;30830;53.704;10.004;2023-07-28T02:33:46;15.60;99.90
45066;DHT22;30830;53.704;10.004;2023-07-28T02:36:11;15.50;99.90
45066;DHT22;30830;53.704;10.004;2023-07-28T02:38:37;15.50;99.90
45066;DHT22;30830;53.704;10.004;2023-07-28T02:41:02;15.50;99.90
45066;DHT22;30830;53.704;10.004;2023-07-28T02:43:29;15.50;99.90
45066;DHT22;30830;53.704;10.004;2023-07-28T02:45:56;15.50;99.90
45066;DHT22;30830;53.704;10.004;2023-07-28T02:48:22;15.50;99.90
45066;DHT22;30830;53.704;10.004;2023-07-28T02:50:50;15.50;99.90
45066;DHT22;30830;53.704;10.004;2023-07-28T02:53:16;15.50;99.90
45066;DHT22;30830;53.704;10.004;2023-07-28T02:55:45;15.50;99.90
45066;DHT22;30830;53.704;10.004;2023-07-28T02:58:11;15.40;99.90
45066;DHT22;30830;53.704;10.004;2023-07-28T03:00:41;15.40;99.90
45066;DHT22;30830;53.704;10.004;2023-07-28T03:03:08;15.50;99.90
45066;DHT22;30830;53.704;10.004;2023-07-28T03:05:36;15.50;99.90
45066;DHT22;30830;53.704;10.004;2023-07-28T03:08:02;15.50;99.90
45066;DHT22;30830;53.704;10.004;2023-07-28T03:10:28;15.50;99.90
45066;DHT22;30830;53.704;10.004;2023-07-28T03:12:53;15.50;99.90
45066;DHT22;30830;53.704;10.004;2023-07-28T03:15:20;15.50;99.90
45066;DHT22;30830;53.704;10.004;2023-07-28T03:17:47;15.50;99.90
45066;DHT22;30830;53.704;10.004;2023-07-28T03:20:13;15.50;99.90
45066;DHT22;30830;53.704;10.004;2023-07-28T03:22:38;15.50;99.90
45066;DHT22;30830;53.704;10.004;2023-07-28T03:25:04;15.50;99.90
45066;DHT22;30830;53.704;10.004;2023-07-28T03:27:30;15.40;99.90
45066;DHT22;30830;53.704;10.004;2023-07-28T03:29:55;15.40;99.90
45066;DHT22;30830;53.704;10.004;2023-07-28T03:32:21;15.40;99.90
45066;DHT22;30830;53.704;10.004;2023-07-28T03:34:46;15.40;99.90
45066;DHT22;30830;53.704;10.004;2023-07-28T03:37:12;15.40;99.90
45066;DHT22;30830;53.704;10.004;2023-07-28T03:39:38;15.40;99.90
45066;DHT22;30830;53.704;10.004;2023-07-28T03:42:03;15.40;99.90
45066;DHT22;30830;53.704;10.004;2023-07-28T03:44:29;15.40;99.90
45066;DHT22;30830;53.704;10.004;2023-07-28T03:46:55;15.40;99.90
45066;DHT22;30830;53.704;10.004;2023-07-28T03:49:20;15.40;99.90
45066;DHT22;30830;53.704;10.004;2023-07-28T03:51:46;15.40;99.90
45066;DHT22;30830;53.704;10.004;2023-07-28T03:54:11;15.40;99.90
45066;DHT22;30830;53.704;10.004;2023-07-28T03:56:37;15.40;99.90
45066;DHT22;30830;53.704;10.004;2023-07-28T03:59:02;15.40;99.90
45066;DHT22;30830;53.704;10.004;2023-07-28T04:01:28;15.40;99.90
45066;DHT22;30830;53.704;10.004;2023-07-28T04:03:54;15.40;99.90
45066;DHT22;30830;53.704;10.004;2023-07-28T04:06:19;15.40;99.90
45066;DHT22;30830;53.704;10.004;2023-07-28T04:09:04;15.40;99.90
45066;DHT22;30830;53.704;10.004;2023-07-28T04:11:29;15.40;99.90
45066;DHT22;30830;53.704;10.004;2023-07-28T04:13:55;15.40;99.90
45066;DHT22;30830;53.704;10.004;2023-07-28T04:16:20;15.40;99.90
45066;DHT22;30830;53.704;10.004;2023-07-28T04:18:46;15.40;99.90
45066;DHT22;30830;53.704;10.004;2023-07-28T04:21:11;15.40;99.90
45066;DHT22;30830;53.704;10.004;2023-07-28T04:23:37;15.40;99.90
45066;DHT22;30830;53.704;10.004;2023-07-28T04:26:02;15.40;99.90
45066;DHT22;30830;53.704;10.004;2023-07-28T04:28:28;15.50;99.90
45066;DHT22;30830;53.704;10.004;2023-07-28T04:30:53;15.50;99.90
45066;DHT22;30830;53.704;10.004;2023-07-28T04:33:19;15.50;99.90
45066;DHT22;30830;53.704;10.004;2023-07-28T04:35:44;15.50;99.90
45066;DHT22;30830;53.704;10.004;2023-07-28T04:38:10;15.50;99.90
45066;DHT22;30830;53.704;10.004;2023-07-28T04:40:35;15.50;99.90
45066;DHT22;30830;53.704;10.004;2023-07-28T04:43:01;15.50;99.90
45066;DHT22;30830;53.704;10.004;2023-07-28T04:45:26;15.50;99.90
45066;DHT22;30830;53.704;10.004;2023-07-28T04:47:52;15.50;99.90
45066;DHT22;30830;53.704;10.004;2023-07-28T04:50:18;15.50;99.90
45066;DHT22;30830;53.704;10.004;2023-07-28T04:52:45;15.50;99.90
45066;DHT22;30830;53.704;10.004;2023-07-28T04:55:11;15.50;99.90
45066;DHT22;30830;53.704;10.004;2023-07-28T04:57:36;15.60;99.90
45066;DHT22;30830;53.704;10.004;2023-07-28T05:00:02;15.60;99.90
45066;DHT22;30830;53.704;10.004;2023-07-28T05:02:29;15.60;99.90
45066;DHT22;30830;53.704;10.004;2023-07-28T05:04:54;15.60;99.90
45066;DHT22;30830;53.704;10.004;2023-07-28T05:07:20;15.60;99.90
45066;DHT22;30830;53.704;10.004;2023-07-28T05:09:48;15.60;99.90
45066;DHT22;30830;53.704;10.004;2023-07-28T05:12:14;15.60;99.90
45066;DHT22;30830;53.704;10.004;2023-07-28T05:14:40;15.70;99.90
45066;DHT22;30830;53.704;10.004;2023-07-28T05:17:05;15.70;99.90
45066;DHT22;30830;53.704;10.004;2023-07-28T05:19:31;15.70;99.90
45066;DHT22;30830;53.704;10.004;2023-07-28T05:21:57;15.70;99.90
45066;DHT22;30830;53.704;10.004;2023-07-28T05:24:23;15.80;99.90
45066;DHT22;30830;53.704;10.004;2023-07-28T05:26:48;15.80;99.90
45066;DHT22;30830;53.704;10.004;2023-07-28T05:29:14;15.90;99.90
45066;DHT22;30830;53.704;10.004;2023-07-28T05:31:40;16.00;99.90
45066;DHT22;30830;53.704;10.004;2023-07-28T05:34:05;16.00;99.90
45066;DHT22;30830;53.704;10.004;2023-07-28T05:36:31;16.00;99.90
45066;DHT22;30830;53.704;10.004;2023-07-28T05:38:57;16.10;99.90
45066;DHT22;30830;53.704;10.004;2023-07-28T05:41:23;16.00;99.90
45066;DHT22;30830;53.704;10.004;2023-07-28T05:43:49;16.00;99.90
45066;DHT22;30830;53.704;10.004;2023-07-28T05:46:16;16.10;99.90
45066;DHT22;30830;53.704;10.004;2023-07-28T05:48:41;16.10;99.90
45066;DHT22;30830;53.704;10.004;2023-07-28T05:51:07;16.10;99.90
45066;DHT22;30830;53.704;10.004;2023-07-28T05:53:32;16.10;99.90
45066;DHT22;30830;53.704;10.004;2023-07-28T05:55:58;16.20;99.90
45066;DHT22;30830;53.704;10.004;2023-07-28T05:58:24;16.20;99.90
45066;DHT22;30830;53.704;10.004;2023-07-28T06:00:49;16.30;99.90
45066;DHT22;30830;53.704;10.004;2023-07-28T06:03:16;16.30;99.90
45066;DHT22;30830;53.704;10.004;2023-07-28T06:05:41;16.30;99.90
45066;DHT22;30830;53.704;10.004;2023-07-28T06:08:08;16.40;99.90
45066;DHT22;30830;53.704;10.004;2023-07-28T06:10:33;16.30;99.90
45066;DHT22;30830;53.704;10.004;2023-07-28T06:13:01;16.30;99.90
45066;DHT22;30830;53.704;10.004;2023-07-28T06:15:27;16.40;99.90
45066;DHT22;30830;53.704;10.004;2023-07-28T06:17:53;16.40;99.90
45066;DHT22;30830;53.704;10.004;2023-07-28T06:20:18;16.40;99.90
45066;DHT22;30830;53.704;10.004;2023-07-28T06:22:44;16.40;99.90
45066;DHT22;30830;53.704;10.004;2023-07-28T06:25:10;16.40;99.90
45066;DHT22;30830;53.704;10.004;2023-07-28T06:27:36;16.40;99.90
45066;DHT22;30830;53.704;10.004;2023-07-28T06:30:02;16.50;99.90
45066;DHT22;30830;53.704;10.004;2023-07-28T06:32:27;16.50;99.90
45066;DHT22;30830;53.704;10.004;2023-07-28T06:34:54;16.50;99.90
45066;DHT22;30830;53.704;10.004;2023-07-28T06:37:19;16.60;99.90
45066;DHT22;30830;53.704;10.004;2023-07-28T06:39:45;16.60;99.90
45066;DHT22;30830;53.704;10.004;2023-07-28T06:42:10;16.60;99.90
45066;DHT22;30830;53.704;10.004;2023-07-28T06:44:37;16.70;99.90
45066;DHT22;30830;53.704;10.004;2023-07-28T06:47:03;16.70;99.90
45066;DHT22;30830;53.704;10.004;2023-07-28T06:49:28;16.80;99.90
45066;DHT22;30830;53.704;10.004;2023-07-28T06:51:54;16.80;99.90
45066;DHT22;30830;53.704;10.004;2023-07-28T06:54:20;16.90;99.90
45066;DHT22;30830;53.704;10.004;2023-07-28T06:56:45;16.90;99.90
45066;DHT22;30830;53.704;10.004;2023-07-28T06:59:11;16.90;99.90
45066;DHT22;30830;53.704;10.004;2023-07-28T07:01:37;16.90;99.90
45066;DHT22;30830;53.704;10.004;2023-07-28T07:04:03;16.90;99.90
45066;DHT22;30830;53.704;10.004;2023-07-28T07:06:30;17.00;99.90
45066;DHT22;30830;53.704;10.004;2023-07-28T07:08:55;17.10;99.90
45066;DHT22;30830;53.704;10.004;2023-07-28T07:11:21;17.10;99.90
45066;DHT22;30830;53.704;10.004;2023-07-28T07:13:46;17.00;99.90
45066;DHT22;30830;53.704;10.004;2023-07-28T07:16:16;17.10;99.90
45066;DHT22;30830;53.704;10.004;2023-07-28T07:18:42;17.20;99.90
45066;DHT22;30830;53.704;10.004;2023-07-28T07:21:09;17.20;99.90
45066;DHT22;30830;53.704;10.004;2023-07-28T07:23:35;17.30;99.90
45066;DHT22;30830;53.704;10.004;2023-07-28T07:26:01;17.30;99.90
45066;DHT22;30830;53.704;10.004;2023-07-28T07:28:26;17.40;99.90
45066;DHT22;30830;53.704;10.004;2023-07-28T07:30:54;17.50;99.90
45066;DHT22;30830;53.704;10.004;2023-07-28T07:33:20;17.50;99.90
45066;DHT22;30830;53.704;10.004;2023-07-28T07:35:45;17.60;99.90
45066;DHT22;30830;53.704;10.004;2023-07-28T07:38:11;17.60;99.90
45066;DHT22;30830;53.704;10.004;2023-07-28T07:40:37;17.60;99.90
45066;DHT22;30830;53.704;10.004;2023-07-28T07:43:04;17.60;99.90
45066;DHT22;30830;53.704;10.004;2023-07-28T07:45:33;17.70;99.90
45066;DHT22;30830;53.704;10.004;2023-07-28T07:47:59;17.80;99.90
45066;DHT22;30830;53.704;10.004;2023-07-28T07:50:24;17.80;99.90
45066;DHT22;30830;53.704;10.004;2023-07-28T07:52:50;17.80;99.90
45066;DHT22;30830;53.704;10.004;2023-07-28T07:55:16;17.90;99.90
45066;DHT22;30830;53.704;10.004;2023-07-28T07:57:41;17.80;99.90
45066;DHT22;30830;53.704;10.004;2023-07-28T08:00:08;17.90;99.90
45066;DHT22;30830;53.704;10.004;2023-07-28T08:02:34;18.00;99.90
45066;DHT22;30830;53.704;10.004;2023-07-28T08:05:00;18.10;99.90
45066;DHT22;30830;53.704;10.004;2023-07-28T08:07:26;18.20;99.90
45066;DHT22;30830;53.704;10.004;2023-07-28T08:09:51;18.20;99.90
45066;DHT22;30830;53.704;10.004;2023-07-28T08:12:17;18.30;99.90
45066;DHT22;30830;53.704;10.004;2023-07-28T08:14:43;18.30;99.90
45066;DHT22;30830;53.704;10.004;2023-07-28T08:17:09;18.40;99.90
45066;DHT22;30830;53.704;10.004;2023-07-28T08:19:35;18.40;99.90
45066;DHT22;30830;53.704;10.004;2023-07-28T08:22:01;18.40;99.90
45066;DHT22;30830;53.704;10.004;2023-07-28T08:24:29;18.40;99.90
45066;DHT22;30830;53.704;10.004;2023-07-28T08:26:54;18.50;99.90
45066;DHT22;30830;53.704;10.004;2023-07-28T08:29:20;18.50;99.90
45066;DHT22;30830;53.704;10.004;2023-07-28T08:31:45;18.50;99.90
45066;DHT22;30830;53.704;10.004;2023-07-28T08:34:12;18.50;99.90
45066;DHT22;30830;53.704;10.004;2023-07-28T08:36:37;18.50;99.90
45066;DHT22;30830;53.704;10.004;2023-07-28T08:39:04;18.50;99.90
45066;DHT22;30830;53.704;10.004;2023-07-28T08:41:29;18.60;99.90
45066;DHT22;30830;53.704;10.004;2023-07-28T08:43:55;18.60;99.90
45066;DHT22;30830;53.704;10.004;2023-07-28T08:46:21;18.60;99.90
45066;DHT22;30830;53.704;10.004;2023-07-28T08:48:47;18.60;99.90
45066;DHT22;30830;53.704;10.004;2023-07-28T08:51:13;18.60;99.90
45066;DHT22;30830;53.704;10.004;2023-07-28T08:53:39;18.70;99.90
45066;DHT22;30830;53.704;10.004;2023-07-28T08:56:08;18.70;99.90
45066;DHT22;30830;53.704;10.004;2023-07-28T08:58:34;18.70;99.90
45066;DHT22;30830;53.704;10.004;2023-07-28T09:00:59;18.80;99.90
45066;DHT22;30830;53.704;10.004;2023-07-28T09:03:26;18.80;99.90
45066;DHT22;30830;53.704;10.004;2023-07-28T09:06:00;18.90;99.90
45066;DHT22;30830;53.704;10.004;2023-07-28T09:08:27;18.90;99.90
45066;DHT22;30830;53.704;10.004;2023-07-28T09:10:52;18.90;99.90
45066;DHT22;30830;53.704;10.004;2023-07-28T09:13:20;19.00;99.90
45066;DHT22;30830;53.704;10.004;2023-07-28T09:15:46;19.10;99.90
45066;DHT22;30830;53.704;10.004;2023-07-28T09:18:15;19.20;99.90
45066;DHT22;30830;53.704;10.004;2023-07-28T09:20:45;19.20;99.90
45066;DHT22;30830;53.704;10.004;2023-07-28T09:23:12;19.20;99.90
45066;DHT22;30830;53.704;10.004;2023-07-28T09:25:38;19.30;99.90
45066;DHT22;30830;53.704;10.004;2023-07-28T09:28:04;19.30;99.90
45066;DHT22;30830;53.704;10.004;2023-07-28T09:30:50;19.20;99.90
45066;DHT22;30830;53.704;10.004;2023-07-28T09:33:32;19.20;99.90
45066;DHT22;30830;53.704;10.004;2023-07-28T09:36:10;19.30;99.90
45066;DHT22;30830;53.704;10.004;2023-07-28T09:38:37;19.40;99.90
45066;DHT22;30830;53.704;10.004;2023-07-28T09:41:04;19.40;99.90
45066;DHT22;30830;53.704;10.004;2023-07-28T09:43:35;19.50;99.90
45066;DHT22;30830;53.704;10.004;2023-07-28T09:46:07;19.60;99.90
45066;DHT22;30830;53.704;10.004;2023-07-28T09:48:33;19.50;99.90
45066;DHT22;30830;53.704;10.004;2023-07-28T09:51:14;19.50;99.90
45066;DHT22;30830;53.704;10.004;2023-07-28T09:53:46;19.60;99.90
45066;DHT22;30830;53.704;10.004;2023-07-28T09:56:14;19.40;99.90
45066;DHT22;30830;53.704;10.004;2023-07-28T09:58:43;19.40;99.90
45066;DHT22;30830;53.704;10.004;2023-07-28T10:01:10;19.30;99.90
45066;DHT22;30830;53.704;10.004;2023-07-28T10:03:37;19.40;99.90
45066;DHT22;30830;53.704;10.004;2023-07-28T10:06:02;19.40;99.90
45066;DHT22;30830;53.704;10.004;2023-07-28T10:08:28;19.40;99.90
45066;DHT22;30830;53.704;10.004;2023-07-28T10:10:56;19.40;99.90
45066;DHT22;30830;53.704;10.004;2023-07-28T10:13:22;19.50;99.90
45066;DHT22;30830;53.704;10.004;2023-07-28T10:15:48;19.50;99.90
45066;DHT22;30830;53.704;10.004;2023-07-28T10:18:14;19.50;99.90
45066;DHT22;30830;53.704;10.004;2023-07-28T10:20:42;19.50;99.90
45066;DHT22;30830;53.704;10.004;2023-07-28T10:23:12;19.60;99.90
45066;DHT22;30830;53.704;10.004;2023-07-28T10:25:38;19.60;99.90
45066;DHT22;30830;53.704;10.004;2023-07-28T10:28:06;19.70;99.90
45066;DHT22;30830;53.704;10.004;2023-07-28T10:30:38;19.70;99.90
45066;DHT22;30830;53.704;10.004;2023-07-28T10:33:31;19.80;99.90
45066;DHT22;30830;53.704;10.004;2023-07-28T10:39:14;19.90;99.90
45066;DHT22;30830;53.704;10.004;2023-07-28T10:44:29;19.90;99.90
45066;DHT22;30830;53.704;10.004;2023-07-28T10:46:55;19.90;99.90
45066;DHT22;30830;53.704;10.004;2023-07-28T10:49:23;19.80;99.90
45066;DHT22;30830;53.704;10.004;2023-07-28T10:51:49;19.90;99.90
45066;DHT22;30830;53.704;10.004;2023-07-28T10:54:15;19.90;99.90
45066;DHT22;30830;53.704;10.004;2023-07-28T10:56:44;20.00;99.90
45066;DHT22;30830;53.704;10.004;2023-07-28T10:59:09;20.00;99.90
45066;DHT22;30830;53.704;10.004;2023-07-28T11:01:37;20.00;99.90
45066;DHT22;30830;53.704;10.004;2023-07-28T11:04:21;20.10;99.90
45066;DHT22;30830;53.704;10.004;2023-07-28T11:06:50;20.10;99.90
45066;DHT22;30830;53.704;10.004;2023-07-28T11:09:17;20.10;99.90
45066;DHT22;30830;53.704;10.004;2023-07-28T11:11:44;20.20;99.90
45066;DHT22;30830;53.704;10.004;2023-07-28T11:14:11;20.20;99.90
45066;DHT22;30830;53.704;10.004;2023-07-28T11:16:39;20.20;99.90
45066;DHT22;30830;53.704;10.004;2023-07-28T11:19:10;20.30;99.90
45066;DHT22;30830;53.704;10.004;2023-07-28T11:21:42;20.30;99.90
45066;DHT22;30830;53.704;10.004;2023-07-28T11:24:09;20.40;99.90
45066;DHT22;30830;53.704;10.004;2023-07-28T11:26:39;20.60;99.90
45066;DHT22;30830;53.704;10.004;2023-07-28T11:29:05;20.70;99.90
45066;DHT22;30830;53.704;10.004;2023-07-28T11:31:31;20.90;99.90
45066;DHT22;30830;53.704;10.004;2023-07-28T11:33:58;21.10;99.90
45066;DHT22;30830;53.704;10.004;2023-07-28T11:36:24;21.30;99.90
45066;DHT22;30830;53.704;10.004;2023-07-28T11:38:54;21.30;99.90
45066;DHT22;30830;53.704;10.004;2023-07-28T11:41:21;21.40;99.90
45066;DHT22;30830;53.704;10.004;2023-07-28T11:43:48;21.50;99.90
45066;DHT22;30830;53.704;10.004;2023-07-28T11:49:15;21.50;99.90
45066;DHT22;30830;53.704;10.004;2023-07-28T11:51:46;21.60;99.90
45066;DHT22;30830;53.704;10.004;2023-07-28T11:54:14;21.60;99.90
45066;DHT22;30830;53.704;10.004;2023-07-28T11:56:43;21.60;99.90
45066;DHT22;30830;53.704;10.004;2023-07-28T11:59:10;21.60;99.90
45066;DHT22;30830;53.704;10.004;2023-07-28T12:02:00;21.60;99.90
45066;DHT22;30830;53.704;10.004;2023-07-28T12:04:37;21.60;99.90
45066;DHT22;30830;53.704;10.004;2023-07-28T12:07:11;21.60;99.90
45066;DHT22;30830;53.704;10.004;2023-07-28T12:12:21;21.80;99.90
45066;DHT22;30830;53.704;10.004;2023-07-28T12:14:47;21.70;99.90
45066;DHT22;30830;53.704;10.004;2023-07-28T12:17:14;21.70;99.90
45066;DHT22;30830;53.704;10.004;2023-07-28T12:20:04;21.70;99.90
45066;DHT22;30830;53.704;10.004;2023-07-28T12:22:41;21.70;99.90
45066;DHT22;30830;53.704;10.004;2023-07-28T12:25:07;21.60;99.90
45066;DHT22;30830;53.704;10.004;2023-07-28T12:27:34;21.60;99.90
45066;DHT22;30830;53.704;10.004;2023-07-28T12:30:00;21.60;99.90
45066;DHT22;30830;53.704;10.004;2023-07-28T12:32:25;21.60;99.90
45066;DHT22;30830;53.704;10.004;2023-07-28T12:34:51;21.60;99.90
45066;DHT22;30830;53.704;10.004;2023-07-28T12:37:20;21.60;99.90
45066;DHT22;30830;53.704;10.004;2023-07-28T12:39:46;21.70;99.90
45066;DHT22;30830;53.704;10.004;2023-07-28T12:42:12;21.70;99.90
45066;DHT22;30830;53.704;10.004;2023-07-28T12:44:38;21.80;99.90
45066;DHT22;30830;53.704;10.004;2023-07-28T12:47:05;21.90;99.90
45066;DHT22;30830;53.704;10.004;2023-07-28T12:49:31;21.90;99.90
45066;DHT22;30830;53.704;10.004;2023-07-28T12:51:58;21.80;99.90
45066;DHT22;30830;53.704;10.004;2023-07-28T12:54:24;21.90;99.90
45066;DHT22;30830;53.704;10.004;2023-07-28T12:56:50;21.90;99.90
45066;DHT22;30830;53.704;10.004;2023-07-28T12:59:16;22.00;99.90
45066;DHT22;30830;53.704;10.004;2023-07-28T13:01:42;22.10;99.90
45066;DHT22;30830;53.704;10.004;2023-07-28T13:04:07;22.10;99.90
45066;DHT22;30830;53.704;10.004;2023-07-28T13:06:33;22.00;99.90
45066;DHT22;30830;53.704;10.004;2023-07-28T13:08:59;22.00;99.90
45066;DHT22;30830;53.704;10.004;2023-07-28T13:11:24;22.00;99.90
45066;DHT22;30830;53.704;10.004;2023-07-28T13:13:50;21.90;99.90
45066;DHT22;30830;53.704;10.004;2023-07-28T13:16:16;21.80;99.90
45066;DHT22;30830;53.704;10.004;2023-07-28T13:18:44;21.80;99.90
45066;DHT22;30830;53.704;10.004;2023-07-28T13:21:10;21.80;99.90
45066;DHT22;30830;53.704;10.004;2023-07-28T13:23:37;21.70;99.90
45066;DHT22;30830;53.704;10.004;2023-07-28T13:26:03;21.80;99.90
45066;DHT22;30830;53.704;10.004;2023-07-28T13:28:32;21.80;99.90
45066;DHT22;30830;53.704;10.004;2023-07-28T13:30:58;21.80;99.90
45066;DHT22;30830;53.704;10.004;2023-07-28T13:33:23;21.70;99.90
45066;DHT22;30830;53.704;10.004;2023-07-28T13:35:49;21.70;99.90
45066;DHT22;30830;53.704;10.004;2023-07-28T13:38:18;21.80;99.90
45066;DHT22;30830;53.704;10.004;2023-07-28T13:40:43;21.90;99.90
45066;DHT22;30830;53.704;10.004;2023-07-28T13:43:09;22.00;99.90
45066;DHT22;30830;53.704;10.004;2023-07-28T13:45:35;22.10;99.90
45066;DHT22;30830;53.704;10.004;2023-07-28T13:48:01;22.10;99.90
45066;DHT22;30830;53.704;10.004;2023-07-28T13:50:26;22.10;99.90
45066;DHT22;30830;53.704;10.004;2023-07-28T13:52:52;22.10;99.90
45066;DHT22;30830;53.704;10.004;2023-07-28T13:55:17;22.10;99.90
45066;DHT22;30830;53.704;10.004;2023-07-28T13:57:43;22.10;99.90
45066;DHT22;30830;53.704;10.004;2023-07-28T14:00:09;22.20;99.90
45066;DHT22;30830;53.704;10.004;2023-07-28T14:02:39;22.20;99.90
45066;DHT22;30830;53.704;10.004;2023-07-28T14:05:05;22.10;99.90
45066;DHT22;30830;53.704;10.004;2023-07-28T14:07:32;22.20;99.90
45066;DHT22;30830;53.704;10.004;2023-07-28T14:09:59;22.10;99.90
45066;DHT22;30830;53.704;10.004;2023-07-28T14:12:24;22.10;99.90
45066;DHT22;30830;53.704;10.004;2023-07-28T14:14:50;22.10;99.90
45066;DHT22;30830;53.704;10.004;2023-07-28T14:17:16;22.10;99.90
45066;DHT22;30830;53.704;10.004;2023-07-28T14:19:41;22.10;99.90
45066;DHT22;30830;53.704;10.004;2023-07-28T14:22:08;22.10;99.90
45066;DHT22;30830;53.704;10.004;2023-07-28T14:24:34;22.10;99.90
45066;DHT22;30830;53.704;10.004;2023-07-28T14:26:59;22.00;99.90
45066;DHT22;30830;53.704;10.004;2023-07-28T14:29:25;22.10;99.90
45066;DHT22;30830;53.704;10.004;2023-07-28T14:31:51;22.10;99.90
45066;DHT22;30830;53.704;10.004;2023-07-28T14:34:17;22.20;99.90
45066;DHT22;30830;53.704;10.004;2023-07-28T14:36:44;22.20;99.90
45066;DHT22;30830;53.704;10.004;2023-07-28T14:39:09;22.20;99.90
45066;DHT22;30830;53.704;10.004;2023-07-28T14:41:35;22.20;99.90
45066;DHT22;30830;53.704;10.004;2023-07-28T14:44:01;22.20;99.90
45066;DHT22;30830;53.704;10.004;2023-07-28T14:46:27;22.10;99.90
45066;DHT22;30830;53.704;10.004;2023-07-28T14:48:53;22.20;99.90
45066;DHT22;30830;53.704;10.004;2023-07-28T14:51:19;22.20;99.90
45066;DHT22;30830;53.704;10.004;2023-07-28T14:53:45;22.20;99.90
45066;DHT22;30830;53.704;10.004;2023-07-28T14:56:14;22.20;99.90
45066;DHT22;30830;53.704;10.004;2023-07-28T14:58:40;22.10;99.90
45066;DHT22;30830;53.704;10.004;2023-07-28T15:01:06;22.20;99.90
45066;DHT22;30830;53.704;10.004;2023-07-28T15:03:33;22.20;99.90
45066;DHT22;30830;53.704;10.004;2023-07-28T15:05:59;22.20;99.90
45066;DHT22;30830;53.704;10.004;2023-07-28T15:08:25;22.20;99.90
45066;DHT22;30830;53.704;10.004;2023-07-28T15:10:51;22.10;99.90
45066;DHT22;30830;53.704;10.004;2023-07-28T15:13:17;22.20;99.90
45066;DHT22;30830;53.704;10.004;2023-07-28T15:15:43;22.20;99.90
45066;DHT22;30830;53.704;10.004;2023-07-28T15:18:08;22.10;99.90
45066;DHT22;30830;53.704;10.004;2023-07-28T15:20:34;22.20;99.90
45066;DHT22;30830;53.704;10.004;2023-07-28T15:23:00;22.20;99.90
45066;DHT22;30830;53.704;10.004;2023-07-28T15:25:26;22.20;99.90
45066;DHT22;30830;53.704;10.004;2023-07-28T15:27:51;22.20;99.90
45066;DHT22;30830;53.704;10.004;2023-07-28T15:30:17;22.30;99.90